sensor_id;sensor_type;location;lat;lon;timestamp;temperature;humidity
55004;DHT22;40900;52.710;6.438;2023-07-29T08:39:23;21.40;99.90
55004;DHT22;40900;52.710;6.438;2023-07-29T08:42:02;20.80;99.90
55004;DHT22;40900;52.710;6.438;2023-07-29T08:44:35;20.80;99.90
55004;DHT22;40900;52.710;6.438;2023-07-29T08:47:02;20.80;99.90
55004;DHT22;40900;52.710;6.438;2023-07-29T08:49:28;21.00;99.90
55004;DHT22;40900;52.710;6.438;2023-07-29T08:51:56;21.10;99.90
55004;DHT22;40900;52.710;6.438;2023-07-29T08:54:23;21.60;99.90
55004;DHT22;40900;52.710;6.438;2023-07-29T08:56:49;22.00;99.90
55004;DHT22;40900;52.710;6.438;2023-07-29T08:59:15;22.30;99.90
55004;DHT22;40900;52.710;6.438;2023-07-29T09:01:43;22.10;99.90
55004;DHT22;40900;52.710;6.438;2023-07-29T09:04:09;22.40;99.90
55004;DHT22;40900;52.710;6.438;2023-07-29T09:06:36;22.60;99.90
55004;DHT22;40900;52.710;6.438;2023-07-29T09:09:07;22.90;99.90
55004;DHT22;40900;52.710;6.438;2023-07-29T09:11:33;23.00;99.90
55004;DHT22;40900;52.710;6.438;2023-07-29T09:13:59;22.90;99.90
55004;DHT22;40900;52.710;6.438;2023-07-29T09:16:26;22.70;99.90
55004;DHT22;40900;52.710;6.438;2023-07-29T09:18:52;22.10;99.90
55004;DHT22;40900;52.710;6.438;2023-07-29T09:21:24;21.80;99.90
55004;DHT22;40900;52.710;6.438;2023-07-29T09:23:52;21.70;99.90
55004;DHT22;40900;52.710;6.438;2023-07-29T09:26:28;21.90;99.90
55004;DHT22;40900;52.710;6.438;2023-07-29T09:28:55;22.20;99.90
55004;DHT22;40900;52.710;6.438;2023-07-29T09:31:23;22.30;99.90
55004;DHT22;40900;52.710;6.438;2023-07-29T09:33:49;22.50;99.90
55004;DHT22;40900;52.710;6.438;2023-07-29T09:36:15;22.20;99.90
55004;DHT22;40900;52.710;6.438;2023-07-29T09:38:41;22.00;99.90
55004;DHT22;40900;52.710;6.438;2023-07-29T09:41:07;21.90;99.90
55004;DHT22;40900;52.710;6.438;2023-07-29T09:43:34;21.60;99.90
55004;DHT22;40900;52.710;6.438;2023-07-29T09:46:04;21.40;99.90
55004;DHT22;40900;52.710;6.438;2023-07-29T09:48:35;21.50;99.90
55004;DHT22;40900;52.710;6.438;2023-07-29T09:51:10;22.00;99.90
55004;DHT22;40900;52.710;6.438;2023-07-29T09:53:43;22.10;99.90
55004;DHT22;40900;52.710;6.438;2023-07-29T09:56:10;22.00;99.90
55004;DHT22;40900;52.710;6.438;2023-07-29T09:58:36;21.80;99.90
55004;DHT22;40900;52.710;6.438;2023-07-29T10:01:05;21.60;99.90
55004;DHT22;40900;52.710;6.438;2023-07-29T10:03:31;21.60;99.90
55004;DHT22;40900;52.710;6.438;2023-07-29T10:06:01;21.70;99.90
55004;DHT22;40900;52.710;6.438;2023-07-29T10:08:30;22.20;99.90
55004;DHT22;40900;52.710;6.438;2023-07-29T10:10:59;22.60;99.90
55004;DHT22;40900;52.710;6.438;2023-07-29T10:13:26;22.50;99.90
55004;DHT22;40900;52.710;6.438;2023-07-29T10:15:57;22.30;99.90
55004;DHT22;40900;52.710;6.438;2023-07-29T10:18:23;22.20;99.90
55004;DHT22;40900;52.710;6.438;2023-07-29T10:20:51;22.20;99.90
55004;DHT22;40900;52.710;6.438;2023-07-29T10:23:21;22.50;99.90
55004;DHT22;40900;52.710;6.438;2023-07-29T10:25:57;22.80;99.90
55004;DHT22;40900;52.710;6.438;2023-07-29T10:28:26;23.10;99.90
55004;DHT22;40900;52.710;6.438;2023-07-29T10:30:54;22.70;99.90
55004;DHT22;40900;52.710;6.438;2023-07-29T10:33:21;22.20;99.90
55004;DHT22;40900;52.710;6.438;2023-07-29T10:35:47;21.90;99.90
55004;DHT22;40900;52.710;6.438;2023-07-29T10:38:13;22.20;99.90
55004;DHT22;40900;52.710;6.438;2023-07-29T10:40:49;22.80;99.90
55004;DHT22;40900;52.710;6.438;2023-07-29T10:43:32;22.90;99.90
55004;DHT22;40900;52.710;6.438;2023-07-29T10:46:21;23.00;99.90
55004;DHT22;40900;52.710;6.438;2023-07-29T10:56:50;22.20;99.90
55004;DHT22;40900;52.710;6.438;2023-07-29T10:59:23;22.40;99.90
55004;DHT22;40900;52.710;6.438;2023-07-29T11:02:00;22.40;99.90
55004;DHT22;40900;52.710;6.438;2023-07-29T11:04:28;22.50;99.90
55004;DHT22;40900;52.710;6.438;2023-07-29T11:09:40;22.40;99.90
55004;DHT22;40900;52.710;6.438;2023-07-29T11:15:27;22.50;99.90
55004;DHT22;40900;52.710;6.438;2023-07-29T11:18:01;22.40;99.90
55004;DHT22;40900;52.710;6.438;2023-07-29T11:20:33;22.30;99.90
55004;DHT22;40900;52.710;6.438;2023-07-29T11:23:02;22.70;99.90
55004;DHT22;40900;52.710;6.438;2023-07-29T11:25:30;22.80;99.90
55004;DHT22;40900;52.710;6.438;2023-07-29T11:27:58;22.90;99.90
55004;DHT22;40900;52.710;6.438;2023-07-29T11:30:24;23.00;99.90
55004;DHT22;40900;52.710;6.438;2023-07-29T11:32:55;22.90;99.90
55004;DHT22;40900;52.710;6.438;2023-07-29T11:35:21;22.50;99.90
55004;DHT22;40900;52.710;6.438;2023-07-29T11:37:50;22.40;99.90
55004;DHT22;40900;52.710;6.438;2023-07-29T11:40:21;22.40;99.90
55004;DHT22;40900;52.710;6.438;2023-07-29T11:42:49;22.70;99.90
55004;DHT22;40900;52.710;6.438;2023-07-29T11:45:19;22.80;99.90
55004;DHT22;40900;52.710;6.438;2023-07-29T11:47:46;23.10;99.90
55004;DHT22;40900;52.710;6.438;2023-07-29T11:50:13;23.10;99.90
55004;DHT22;40900;52.710;6.438;2023-07-29T11:52:44;23.40;99.90
55004;DHT22;40900;52.710;6.438;2023-07-29T11:55:12;23.50;99.90
55004;DHT22;40900;52.710;6.438;2023-07-29T11:57:38;23.60;99.90
55004;DHT22;40900;52.710;6.438;2023-07-29T12:00:07;23.80;99.90
55004;DHT22;40900;52.710;6.438;2023-07-29T12:02:40;23.70;99.90
55004;DHT22;40900;52.710;6.438;2023-07-29T12:05:07;24.00;99.90
55004;DHT22;40900;52.710;6.438;2023-07-29T12:07:34;24.20;99.90
55004;DHT22;40900;52.710;6.438;2023-07-29T12:10:02;24.50;99.90
55004;DHT22;40900;52.710;6.438;2023-07-29T12:12:29;24.70;99.90
55004;DHT22;40900;52.710;6.438;2023-07-29T12:14:55;24.60;99.90
55004;DHT22;40900;52.710;6.438;2023-07-29T12:17:21;24.50;99.90
55004;DHT22;40900;52.710;6.438;2023-07-29T12:19:46;24.40;99.90
55004;DHT22;40900;52.710;6.438;2023-07-29T12:22:19;24.10;99.90
55004;DHT22;40900;52.710;6.438;2023-07-29T12:24:46;24.00;99.90
55004;DHT22;40900;52.710;6.438;2023-07-29T12:27:13;24.10;99.90
55004;DHT22;40900;52.710;6.438;2023-07-29T12:29:43;23.90;99.90
55004;DHT22;40900;52.710;6.438;2023-07-29T12:32:09;23.90;99.90
55004;DHT22;40900;52.710;6.438;2023-07-29T12:34:37;23.80;99.90
55004;DHT22;40900;52.710;6.438;2023-07-29T12:37:04;23.50;99.90
55004;DHT22;40900;52.710;6.438;2023-07-29T12:39:33;23.50;99.90
55004;DHT22;40900;52.710;6.438;2023-07-29T12:42:00;23.40;99.90
55004;DHT22;40900;52.710;6.438;2023-07-29T12:44:32;23.20;99.90
55004;DHT22;40900;52.710;6.438;2023-07-29T12:47:00;23.00;99.90
55004;DHT22;40900;52.710;6.438;2023-07-29T12:49:26;22.80;99.90
55004;DHT22;40900;52.710;6.438;2023-07-29T12:51:53;22.80;99.90
55004;DHT22;40900;52.710;6.438;2023-07-29T12:54:19;22.90;99.90
55004;DHT22;40900;52.710;6.438;2023-07-29T12:56:45;22.80;99.90
55004;DHT22;40900;52.710;6.438;2023-07-29T12:59:11;23.00;99.90
55004;DHT22;40900;52.710;6.438;2023-07-29T13:01:36;23.10;99.90
55004;DHT22;40900;52.710;6.438;2023-07-29T13:04:02;23.20;99.90
55004;DHT22;40900;52.710;6.438;2023-07-29T13:06:28;23.20;99.90
55004;DHT22;40900;52.710;6.438;2023-07-29T13:08:53;23.20;99.90
55004;DHT22;40900;52.710;6.438;2023-07-29T13:11:19;23.50;99.90
55004;DHT22;40900;52.710;6.438;2023-07-29T13:13:46;23.50;99.90
55004;DHT22;40900;52.710;6.438;2023-07-29T13:16:12;23.60;99.90
55004;DHT22;40900;52.710;6.438;2023-07-29T13:18:38;23.50;99.90
55004;DHT22;40900;52.710;6.438;2023-07-29T13:21:05;23.70;99.90
55004;DHT22;40900;52.710;6.438;2023-07-29T13:23:30;23.50;99.90
55004;DHT22;40900;52.710;6.438;2023-07-29T13:25:57;23.10;99.90
55004;DHT22;40900;52.710;6.438;2023-07-29T13:28:23;22.60;99.90
55004;DHT22;40900;52.710;6.438;2023-07-29T13:30:49;22.50;99.90
55004;DHT22;40900;52.710;6.438;2023-07-29T13:33:15;22.40;99.90
55004;DHT22;40900;52.710;6.438;2023-07-29T13:35:41;22.50;99.90
55004;DHT22;40900;52.710;6.438;2023-07-29T13:38:06;22.50;99.90
55004;DHT22;40900;52.710;6.438;2023-07-29T13:40:32;22.30;99.90
55004;DHT22;40900;52.710;6.438;2023-07-29T13:42:58;22.00;99.90
55004;DHT22;40900;52.710;6.438;2023-07-29T13:45:24;21.70;99.90
55004;DHT22;40900;52.710;6.438;2023-07-29T13:47:50;21.40;99.90
55004;DHT22;40900;52.710;6.438;2023-07-29T13:50:17;21.30;99.90
55004;DHT22;40900;52.710;6.438;2023-07-29T13:52:43;21.10;99.90
55004;DHT22;40900;52.710;6.438;2023-07-29T13:55:09;21.10;99.90
55004;DHT22;40900;52.710;6.438;2023-07-29T13:57:37;21.00;99.90
55004;DHT22;40900;52.710;6.438;2023-07-29T14:00:04;20.90;99.90
55004;DHT22;40900;52.710;6.438;2023-07-29T14:02:31;21.10;99.90
55004;DHT22;40900;52.710;6.438;2023-07-29T14:04:57;21.30;99.90
55004;DHT22;40900;52.710;6.438;2023-07-29T14:07:23;21.50;99.90
55004;DHT22;40900;52.710;6.438;2023-07-29T14:09:48;21.80;99.90
55004;DHT22;40900;52.710;6.438;2023-07-29T14:12:14;21.80;99.90
55004;DHT22;40900;52.710;6.438;2023-07-29T14:14:42;22.00;99.90
55004;DHT22;40900;52.710;6.438;2023-07-29T14:17:09;21.80;99.90
55004;DHT22;40900;52.710;6.438;2023-07-29T14:19:36;21.90;99.90
55004;DHT22;40900;52.710;6.438;2023-07-29T14:22:02;21.80;99.90
55004;DHT22;40900;52.710;6.438;2023-07-29T14:24:27;21.80;99.90
55004;DHT22;40900;52.710;6.438;2023-07-29T14:26:54;21.60;99.90
55004;DHT22;40900;52.710;6.438;2023-07-29T14:29:19;21.50;99.90
55004;DHT22;40900;52.710;6.438;2023-07-29T14:31:45;21.50;99.90
55004;DHT22;40900;52.710;6.438;2023-07-29T14:34:11;21.50;99.90
55004;DHT22;40900;52.710;6.438;2023-07-29T14:36:37;21.50;99.90
55004;DHT22;40900;52.710;6.438;2023-07-29T14:39:03;21.30;99.90
55004;DHT22;40900;52.710;6.438;2023-07-29T14:41:32;21.10;99.90
55004;DHT22;40900;52.710;6.438;2023-07-29T14:43:57;20.90;99.90
55004;DHT22;40900;52.710;6.438;2023-07-29T14:46:23;20.80;99.90
55004;DHT22;40900;52.710;6.438;2023-07-29T14:48:50;20.60;99.90
55004;DHT22;40900;52.710;6.438;2023-07-29T14:51:16;20.70;99.90
55004;DHT22;40900;52.710;6.438;2023-07-29T14:53:42;21.00;99.90
55004;DHT22;40900;52.710;6.438;2023-07-29T14:56:08;21.10;99.90
55004;DHT22;40900;52.710;6.438;2023-07-29T14:58:35;21.30;99.90
55004;DHT22;40900;52.710;6.438;2023-07-29T15:01:00;21.30;99.90
55004;DHT22;40900;52.710;6.438;2023-07-29T15:03:32;21.40;99.90
55004;DHT22;40900;52.710;6.438;2023-07-29T15:05:58;21.50;99.90
55004;DHT22;40900;52.710;6.438;2023-07-29T15:08:26;21.70;99.90
55004;DHT22;40900;52.710;6.438;2023-07-29T15:10:53;21.70;99.90
55004;DHT22;40900;52.710;6.438;2023-07-29T15:13:20;21.80;99.90
55004;DHT22;40900;52.710;6.438;2023-07-29T15:15:46;21.80;99.90
55004;DHT22;40900;52.710;6.438;2023-07-29T15:18:13;21.90;99.90
55004;DHT22;40900;52.710;6.438;2023-07-29T15:20:39;22.00;99.90
55004;DHT22;40900;52.710;6.438;2023-07-29T15:23:05;22.10;99.90
55004;DHT22;40900;52.710;6.438;2023-07-29T15:25:31;22.20;99.90
55004;DHT22;40900;52.710;6.438;2023-07-29T15:27:57;22.30;99.90
55004;DHT22;40900;52.710;6.438;2023-07-29T15:30:23;22.30;99.90
55004;DHT22;40900;52.710;6.438;2023-07-29T15:32:49;22.20;99.90
55004;DHT22;40900;52.710;6.438;2023-07-29T15:35:15;22.20;99.90
55004;DHT22;40900;52.710;6.438;2023-07-29T15:37:40;22.20;99.90
55004;DHT22;40900;52.710;6.438;2023-07-29T15:40:07;22.30;99.90
55004;DHT22;40900;52.710;6.438;2023-07-29T15:42:33;22.30;99.90
55004;DHT22;40900;52.710;6.438;2023-07-29T15:44:59;22.30;99.90
55004;DHT22;40900;52.710;6.438;2023-07-29T15:47:24;22.30;99.90
55004;DHT22;40900;52.710;6.438;2023-07-29T15:49:50;22.30;99.90
55004;DHT22;40900;52.710;6.438;2023-07-29T15:52:16;22.20;99.90
55004;DHT22;40900;52.710;6.438;2023-07-29T15:54:42;22.30;99.90
55004;DHT22;40900;52.710;6.438;2023-07-29T15:57:09;22.40;99.90
55004;DHT22;40900;52.710;6.438;2023-07-29T15:59:35;22.40;99.90
55004;DHT22;40900;52.710;6.438;2023-07-29T16:02:01;22.30;99.90
55004;DHT22;40900;52.710;6.438;2023-07-29T16:04:27;22.10;99.90
55004;DHT22;40900;52.710;6.438;2023-07-29T16:06:53;22.10;99.90
55004;DHT22;40900;52.710;6.438;2023-07-29T16:09:20;22.20;99.90
55004;DHT22;40900;52.710;6.438;2023-07-29T16:11:50;22.30;99.90
55004;DHT22;40900;52.710;6.438;2023-07-29T16:14:16;22.30;99.90
55004;DHT22;40900;52.710;6.438;2023-07-29T16:16:41;22.40;99.90
55004;DHT22;40900;52.710;6.438;2023-07-29T16:19:08;22.50;99.90
55004;DHT22;40900;52.710;6.438;2023-07-29T16:21:35;22.60;99.90
55004;DHT22;40900;52.710;6.438;2023-07-29T16:24:01;22.70;99.90
55004;DHT22;40900;52.710;6.438;2023-07-29T16:26:27;22.70;99.90
55004;DHT22;40900;52.710;6.438;2023-07-29T16:28:53;22.50;99.90
55004;DHT22;40900;52.710;6.438;2023-07-29T16:31:19;22.50;99.90
55004;DHT22;40900;52.710;6.438;2023-07-29T16:33:46;22.40;99.90
55004;DHT22;40900;52.710;6.438;2023-07-29T16:36:11;22.20;99.90
55004;DHT22;40900;52.710;6.438;2023-07-29T16:38:37;22.10;99.90
55004;DHT22;40900;52.710;6.438;2023-07-29T16:41:03;22.00;99.90
55004;DHT22;40900;52.710;6.438;2023-07-29T16:43:29;22.10;99.90
55004;DHT22;40900;52.710;6.438;2023-07-29T16:45:54;22.00;99.90
55004;DHT22;40900;52.710;6.438;2023-07-29T16:48:20;21.80;99.90
55004;DHT22;40900;52.710;6.438;2023-07-29T16:50:46;21.90;99.90
55004;DHT22;40900;52.710;6.438;2023-07-29T16:53:12;21.90;99.90
55004;DHT22;40900;52.710;6.438;2023-07-29T16:55:37;21.80;99.90
55004;DHT22;40900;52.710;6.438;2023-07-29T16:58:03;21.70;99.90
55004;DHT22;40900;52.710;6.438;2023-07-29T17:00:29;21.60;99.90
55004;DHT22;40900;52.710;6.438;2023-07-29T17:02:54;21.60;99.90
55004;DHT22;40900;52.710;6.438;2023-07-29T17:05:20;21.60;99.90
55004;DHT22;40900;52.710;6.438;2023-07-29T17:07:46;21.60;99.90
55004;DHT22;40900;52.710;6.438;2023-07-29T17:10:12;21.60;99.90
55004;DHT22;40900;52.710;6.438;2023-07-29T17:12:37;21.70;99.90
55004;DHT22;40900;52.710;6.438;2023-07-29T17:15:03;21.80;99.90
55004;DHT22;40900;52.710;6.438;2023-07-29T17:17:32;21.80;99.90
55004;DHT22;40900;52.710;6.438;2023-07-29T17:19:58;21.90;99.90
55004;DHT22;40900;52.710;6.438;2023-07-29T17:22:24;21.90;99.90
55004;DHT22;40900;52.710;6.438;2023-07-29T17:24:49;22.00;99.90
55004;DHT22;40900;52.710;6.438;2023-07-29T17:27:15;22.00;99.90
55004;DHT22;40900;52.710;6.438;2023-07-29T17:29:41;22.10;99.90
55004;DHT22;40900;52.710;6.438;2023-07-29T17:32:07;22.10;99.90
55004;DHT22;40900;52.710;6.438;2023-07-29T17:34:33;22.10;99.90
55004;DHT22;40900;52.710;6.438;2023-07-29T17:36:59;22.00;99.90
55004;DHT22;40900;52.710;6.438;2023-07-29T17:39:24;22.00;99.90
55004;DHT22;40900;52.710;6.438;2023-07-29T17:41:51;22.10;99.90
55004;DHT22;40900;52.710;6.438;2023-07-29T17:44:16;22.10;99.90
55004;DHT22;40900;52.710;6.438;2023-07-29T17:46:42;22.20;99.90
55004;DHT22;40900;52.710;6.438;2023-07-29T17:49:08;22.20;99.90
55004;DHT22;40900;52.710;6.438;2023-07-29T17:51:33;22.20;99.90
55004;DHT22;40900;52.710;6.438;2023-07-29T17:53:59;22.10;99.90
55004;DHT22;40900;52.710;6.438;2023-07-29T17:56:25;22.20;99.90
55004;DHT22;40900;52.710;6.438;2023-07-29T17:58:52;22.20;99.90
55004;DHT22;40900;52.710;6.438;2023-07-29T18:01:18;22.10;99.90
55004;DHT22;40900;52.710;6.438;2023-07-29T18:03:43;22.00;99.90
55004;DHT22;40900;52.710;6.438;2023-07-29T18:06:13;22.00;99.90
55004;DHT22;40900;52.710;6.438;2023-07-29T18:08:40;22.00;99.90
55004;DHT22;40900;52.710;6.438;2023-07-29T18:11:05;21.90;99.90
55004;DHT22;40900;52.710;6.438;2023-07-29T18:13:31;21.90;99.90
55004;DHT22;40900;52.710;6.438;2023-07-29T18:15:57;21.70;99.90
55004;DHT22;40900;52.710;6.438;2023-07-29T18:18:26;21.60;99.90
55004;DHT22;40900;52.710;6.438;2023-07-29T18:20:52;21.50;99.90
55004;DHT22;40900;52.710;6.438;2023-07-29T18:23:18;21.50;99.90
55004;DHT22;40900;52.710;6.438;2023-07-29T18:25:43;21.50;99.90
55004;DHT22;40900;52.710;6.438;2023-07-29T18:28:10;21.50;99.90
55004;DHT22;40900;52.710;6.438;2023-07-29T18:30:36;21.50;99.90
55004;DHT22;40900;52.710;6.438;2023-07-29T18:33:02;21.40;99.90
55004;DHT22;40900;52.710;6.438;2023-07-29T18:35:29;21.20;99.90
55004;DHT22;40900;52.710;6.438;2023-07-29T18:37:55;21.20;99.90
55004;DHT22;40900;52.710;6.438;2023-07-29T18:40:29;21.20;99.90
55004;DHT22;40900;52.710;6.438;2023-07-29T18:42:55;21.20;99.90
55004;DHT22;40900;52.710;6.438;2023-07-29T18:45:21;21.10;99.90
55004;DHT22;40900;52.710;6.438;2023-07-29T18:47:47;21.00;99.90
55004;DHT22;40900;52.710;6.438;2023-07-29T18:50:16;21.00;99.90
55004;DHT22;40900;52.710;6.438;2023-07-29T18:52:42;21.00;99.90
55004;DHT22;40900;52.710;6.438;2023-07-29T18:55:08;20.90;99.90
55004;DHT22;40900;52.710;6.438;2023-07-29T18:57:34;20.90;99.90
55004;DHT22;40900;52.710;6.438;2023-07-29T18:59:59;20.70;99.90
55004;DHT22;40900;52.710;6.438;2023-07-29T19:02:29;20.70;99.90
55004;DHT22;40900;52.710;6.438;2023-07-29T19:04:55;20.60;99.90
55004;DHT22;40900;52.710;6.438;2023-07-29T19:07:21;20.50;99.90
55004;DHT22;40900;52.710;6.438;2023-07-29T19:09:47;20.60;99.90
55004;DHT22;40900;52.710;6.438;2023-07-29T19:12:13;20.60;99.90
55004;DHT22;40900;52.710;6.438;2023-07-29T19:14:39;20.60;99.90
55004;DHT22;40900;52.710;6.438;2023-07-29T19:17:05;20.60;99.90
55004;DHT22;40900;52.710;6.438;2023-07-29T19:19:31;20.60;99.90
55004;DHT22;40900;52.710;6.438;2023-07-29T19:21:56;20.50;99.90
55004;DHT22;40900;52.710;6.438;2023-07-29T19:24:22;20.50;99.90
55004;DHT22;40900;52.710;6.438;2023-07-29T19:26:48;20.50;99.90
55004;DHT22;40900;52.710;6.438;2023-07-29T19:29:14;20.40;99.90
55004;DHT22;40900;52.710;6.438;2023-07-29T19:31:40;20.30;99.90
55004;DHT22;40900;52.710;6.438;2023-07-29T19:34:09;20.20;99.90
55004;DHT22;40900;52.710;6.438;2023-07-29T19:36:35;20.10;99.90
55004;DHT22;40900;52.710;6.438;2023-07-29T19:39:04;20.00;99.90
55004;DHT22;40900;52.710;6.438;2023-07-29T19:41:31;20.00;99.90
55004;DHT22;40900;52.710;6.438;2023-07-29T19:43:56;19.90;99.90
55004;DHT22;40900;52.710;6.438;2023-07-29T19:46:22;19.80;99.90
55004;DHT22;40900;52.710;6.438;2023-07-29T19:48:48;19.70;99.90
55004;DHT22;40900;52.710;6.438;2023-07-29T19:51:17;19.70;99.90
55004;DHT22;40900;52.710;6.438;2023-07-29T19:53:44;19.60;99.90
55004;DHT22;40900;52.710;6.438;2023-07-29T19:56:09;19.60;99.90
55004;DHT22;40900;52.710;6.438;2023-07-29T19:58:35;19.60;99.90
55004;DHT22;40900;52.710;6.438;2023-07-29T20:01:02;19.40;99.90
55004;DHT22;40900;52.710;6.438;2023-07-29T20:03:28;19.40;99.90
55004;DHT22;40900;52.710;6.438;2023-07-29T20:05:54;19.40;99.90
55004;DHT22;40900;52.710;6.438;2023-07-29T20:08:20;19.40;99.90
55004;DHT22;40900;52.710;6.438;2023-07-29T20:10:46;19.30;99.90
55004;DHT22;40900;52.710;6.438;2023-07-29T20:13:12;19.30;99.90
55004;DHT22;40900;52.710;6.438;2023-07-29T20:15:38;19.20;99.90
55004;DHT22;40900;52.710;6.438;2023-07-29T20:18:04;19.20;99.90
55004;DHT22;40900;52.710;6.438;2023-07-29T20:20:30;19.20;99.90
55004;DHT22;40900;52.710;6.438;2023-07-29T20:22:55;19.10;99.90
55004;DHT22;40900;52.710;6.438;2023-07-29T20:25:21;19.10;99.90
55004;DHT22;40900;52.710;6.438;2023-07-29T20:27:47;19.10;99.90
55004;DHT22;40900;52.710;6.438;2023-07-29T20:30:13;19.00;99.90
55004;DHT22;40900;52.710;6.438;2023-07-29T20:32:38;18.90;99.90
55004;DHT22;40900;52.710;6.438;2023-07-29T20:35:04;18.90;99.90
55004;DHT22;40900;52.710;6.438;2023-07-29T20:37:30;18.80;99.90
55004;DHT22;40900;52.710;6.438;2023-07-29T20:39:56;18.80;99.90
55004;DHT22;40900;52.710;6.438;2023-07-29T20:42:22;18.80;99.90
55004;DHT22;40900;52.710;6.438;2023-07-29T20:44:48;18.70;99.90
55004;DHT22;40900;52.710;6.438;2023-07-29T20:47:14;18.70;99.90
55004;DHT22;40900;52.710;6.438;2023-07-29T20:49:43;18.60;99.90
55004;DHT22;40900;52.710;6.438;2023-07-29T20:52:10;18.60;99.90
55004;DHT22;40900;52.710;6.438;2023-07-29T20:54:35;18.50;99.90
55004;DHT22;40900;52.710;6.438;2023-07-29T20:57:01;18.50;99.90
55004;DHT22;40900;52.710;6.438;2023-07-29T20:59:27;18.50;99.90
55004;DHT22;40900;52.710;6.438;2023-07-29T21:01:53;18.40;99.90
55004;DHT22;40900;52.710;6.438;2023-07-29T21:04:18;18.40;99.90
55004;DHT22;40900;52.710;6.438;2023-07-29T21:06:44;18.40;99.90
55004;DHT22;40900;52.710;6.438;2023-07-29T21:09:10;18.30;99.90
55004;DHT22;40900;52.710;6.438;2023-07-29T21:11:38;18.30;99.90
55004;DHT22;40900;52.710;6.438;2023-07-29T21:14:04;18.20;99.90
55004;DHT22;40900;52.710;6.438;2023-07-29T21:16:30;18.20;99.90
55004;DHT22;40900;52.710;6.438;2023-07-29T21:18:56;18.20;99.90
55004;DHT22;40900;52.710;6.438;2023-07-29T21:21:23;18.10;99.90
55004;DHT22;40900;52.710;6.438;2023-07-29T21:23:49;18.10;99.90
55004;DHT22;40900;52.710;6.438;2023-07-29T21:26:15;18.00;99.90
55004;DHT22;40900;52.710;6.438;2023-07-29T21:28:40;17.90;99.90
55004;DHT22;40900;52.710;6.438;2023-07-29T21:31:06;17.90;99.90
55004;DHT22;40900;52.710;6.438;2023-07-29T21:33:32;17.90;99.90
55004;DHT22;40900;52.710;6.438;2023-07-29T21:35:59;17.90;99.90
55004;DHT22;40900;52.710;6.438;2023-07-29T21:38:25;17.90;99.90
55004;DHT22;40900;52.710;6.438;2023-07-29T21:40:51;17.90;99.90
55004;DHT22;40900;52.710;6.438;2023-07-29T21:43:17;17.80;99.90
55004;DHT22;40900;52.710;6.438;2023-07-29T21:45:43;17.80;99.90
55004;DHT22;40900;52.710;6.438;2023-07-29T21:48:09;17.80;99.90
55004;DHT22;40900;52.710;6.438;2023-07-29T21:50:35;17.70;99.90
55004;DHT22;40900;52.710;6.438;2023-07-29T21:53:01;17.70;99.90
55004;DHT22;40900;52.710;6.438;2023-07-29T21:55:26;17.80;99.90
55004;DHT22;40900;52.710;6.438;2023-07-29T21:57:52;17.80;99.90
55004;DHT22;40900;52.710;6.438;2023-07-29T22:00:18;17.70;99.90
55004;DHT22;40900;52.710;6.438;2023-07-29T22:02:43;17.80;99.90
55004;DHT22;40900;52.710;6.438;2023-07-29T22:05:09;17.70;99.90
55004;DHT22;40900;52.710;6.438;2023-07-29T22:07:35;17.70;99.90
55004;DHT22;40900;52.710;6.438;2023-07-29T22:10:04;17.70;99.90
55004;DHT22;40900;52.710;6.438;2023-07-29T22:12:30;17.70;99.90
55004;DHT22;40900;52.710;6.438;2023-07-29T22:15:01;17.50;99.90
55004;DHT22;40900;52.710;6.438;2023-07-29T22:17:26;17.50;99.90
55004;DHT22;40900;52.710;6.438;2023-07-29T22:19:52;17.50;99.90
55004;DHT22;40900;52.710;6.438;2023-07-29T22:22:18;17.40;99.90
55004;DHT22;40900;52.710;6.438;2023-07-29T22:24:44;17.40;99.90
55004;DHT22;40900;52.710;6.438;2023-07-29T22:27:10;17.40;99.90
55004;DHT22;40900;52.710;6.438;2023-07-29T22:29:35;17.40;99.90
55004;DHT22;40900;52.710;6.438;2023-07-29T22:32:06;17.40;99.90
55004;DHT22;40900;52.710;6.438;2023-07-29T22:34:33;17.30;99.90
55004;DHT22;40900;52.710;6.438;2023-07-29T22:36:58;17.30;99.90
55004;DHT22;40900;52.710;6.438;2023-07-29T22:39:24;17.20;99.90
55004;DHT22;40900;52.710;6.438;2023-07-29T22:41:50;17.10;99.90
55004;DHT22;40900;52.710;6.438;2023-07-29T22:44:17;17.10;99.90
55004;DHT22;40900;52.710;6.438;2023-07-29T22:46:45;17.00;99.90
55004;DHT22;40900;52.710;6.438;2023-07-29T22:49:11;17.00;99.90
55004;DHT22;40900;52.710;6.438;2023-07-29T22:51:37;16.90;99.90
55004;DHT22;40900;52.710;6.438;2023-07-29T22:54:03;16.80;99.90
55004;DHT22;40900;52.710;6.438;2023-07-29T22:56:28;16.80;99.90
55004;DHT22;40900;52.710;6.438;2023-07-29T22:58:54;16.70;99.90
55004;DHT22;40900;52.710;6.438;2023-07-29T23:01:20;16.70;99.90
55004;DHT22;40900;52.710;6.438;2023-07-29T23:03:46;16.70;99.90
55004;DHT22;40900;52.710;6.438;2023-07-29T23:06:11;16.60;99.90
55004;DHT22;40900;52.710;6.438;2023-07-29T23:08:37;16.60;99.90
55004;DHT22;40900;52.710;6.438;2023-07-29T23:11:04;16.60;99.90
55004;DHT22;40900;52.710;6.438;2023-07-29T23:13:30;16.60;99.90
55004;DHT22;40900;52.710;6.438;2023-07-29T23:16:02;16.50;99.90
55004;DHT22;40900;52.710;6.438;2023-07-29T23:18:28;16.50;99.90
55004;DHT22;40900;52.710;6.438;2023-07-29T23:20:54;16.60;99.90
55004;DHT22;40900;52.710;6.438;2023-07-29T23:23:21;16.50;99.90
55004;DHT22;40900;52.710;6.438;2023-07-29T23:25:47;16.50;99.90
55004;DHT22;40900;52.710;6.438;2023-07-29T23:28:13;16.50;99.90
55004;DHT22;40900;52.710;6.438;2023-07-29T23:30:39;16.40;99.90
55004;DHT22;40900;52.710;6.438;2023-07-29T23:33:05;16.40;99.90
55004;DHT22;40900;52.710;6.438;2023-07-29T23:35:31;16.40;99.90
55004;DHT22;40900;52.710;6.438;2023-07-29T23:37:57;16.30;99.90
55004;DHT22;40900;52.710;6.438;2023-07-29T23:40:23;16.30;99.90
55004;DHT22;40900;52.710;6.438;2023-07-29T23:42:49;16.30;99.90
55004;DHT22;40900;52.710;6.438;2023-07-29T23:45:15;16.30;99.90
55004;DHT22;40900;52.710;6.438;2023-07-29T23:47:41;16.30;99.90
55004;DHT22;40900;52.710;6.438;2023-07-29T23:50:07;16.30;99.90
55004;DHT22;40900;52.710;6.438;2023-07-29T23:52:33;16.20;99.90
55004;DHT22;40900;52.710;6.438;2023-07-29T23:54:59;16.20;99.90
55004;DHT22;40900;52.710;6.438;2023-07-29T23:57:25;16.10;99.90
55004;DHT22;40900;52.710;6.438;2023-07-29T23:59:51;16.10;99.90
